Time;durP1;ratioP1;P1;durP2;ratioP2;P2;SDS_P1;SDS_P2;PMS_P1;PMS_P2;Temp;Humidity;BMP_temperature;BMP_pressure;BME280_temperature;BME280_humidity;BME280_pressure;Samples;Min_cycle;Max_cycle;Signal;HPM_P1;HPM_P2
2024/03/14 00:02:19;;;;;;;6.23;4.97;;;;;;;9.77;100.00;98239.41;4957528;28;20227;-77
2024/03/14 00:04:46;;;;;;;8.07;5.30;;;;;;;9.75;100.00;98233.38;4957639;28;20227;-77
2024/03/14 00:07:14;;;;;;;8.63;5.10;;;;;;;9.74;100.00;98236.97;4957841;28;20609;-78
2024/03/14 00:09:41;;;;;;;9.10;6.23;;;;;;;9.74;100.00;98240.44;4957746;28;20664;-77
2024/03/14 00:12:08;;;;;;;10.93;6.43;;;;;;;9.72;100.00;98236.22;4957368;28;20255;-77
2024/03/14 00:14:35;;;;;;;8.60;5.80;;;;;;;9.72;100.00;98233.59;4957745;28;20244;-77
2024/03/14 00:17:01;;;;;;;11.50;6.53;;;;;;;9.75;100.00;98233.38;4957329;28;20674;-77
2024/03/14 00:19:28;;;;;;;7.83;5.70;;;;;;;9.74;100.00;98229.06;4957136;28;20241;-77
2024/03/14 00:21:56;;;;;;;8.97;6.67;;;;;;;9.72;100.00;98223.03;4956417;28;20282;-78
2024/03/14 00:24:23;;;;;;;8.40;5.67;;;;;;;9.71;100.00;98223.94;4957208;28;20212;-77
2024/03/14 00:26:49;;;;;;;7.87;5.70;;;;;;;9.69;100.00;98232.00;4957015;28;20212;-77
2024/03/14 00:29:16;;;;;;;10.17;6.90;;;;;;;9.66;100.00;98231.34;4957017;28;20210;-77
2024/03/14 00:31:43;;;;;;;10.43;6.97;;;;;;;9.65;100.00;98233.13;4956662;28;20234;-77
2024/03/14 00:34:09;;;;;;;9.90;6.07;;;;;;;9.64;100.00;98227.94;4956978;28;20438;-77
2024/03/14 00:36:37;;;;;;;10.60;6.83;;;;;;;9.61;100.00;98223.69;4957146;28;20267;-77
2024/03/14 00:39:06;;;;;;;9.73;5.87;;;;;;;9.57;100.00;98226.63;4957206;28;20234;-77
2024/03/14 00:41:33;;;;;;;8.53;6.17;;;;;;;9.52;100.00;98224.28;4956702;28;20241;-77
2024/03/14 00:44:00;;;;;;;7.10;5.73;;;;;;;9.44;100.00;98225.72;4956703;28;20313;-77
2024/03/14 00:46:26;;;;;;;9.40;6.10;;;;;;;9.38;100.00;98221.69;4956894;28;20715;-77
2024/03/14 00:48:53;;;;;;;9.23;6.00;;;;;;;9.31;100.00;98219.53;4957134;28;20238;-77
2024/03/14 00:51:19;;;;;;;11.10;6.77;;;;;;;9.25;100.00;98219.91;4957002;28;20249;-77
2024/03/14 00:53:46;;;;;;;10.00;6.30;;;;;;;9.18;100.00;98213.34;4956739;28;20225;-77
2024/03/14 00:56:13;;;;;;;10.87;7.10;;;;;;;9.16;100.00;98215.19;4956636;28;20265;-77
2024/03/14 00:58:39;;;;;;;9.90;7.13;;;;;;;9.17;100.00;98222.19;4956850;28;20557;-77
2024/03/14 01:01:07;;;;;;;10.00;6.77;;;;;;;9.14;100.00;98210.03;4956033;28;20241;-77
2024/03/14 01:03:34;;;;;;;11.30;7.73;;;;;;;9.10;100.00;98210.31;4956548;28;20217;-77
2024/03/14 01:06:01;;;;;;;11.93;6.57;;;;;;;9.00;100.00;98198.66;4956688;28;20681;-77
2024/03/14 01:08:28;;;;;;;8.90;6.97;;;;;;;8.94;100.00;98201.66;4956635;28;20248;-78
2024/03/14 01:10:55;;;;;;;10.33;7.20;;;;;;;8.81;100.00;98198.09;4956795;28;20249;-77
2024/03/14 01:13:25;;;;;;;10.40;6.70;;;;;;;8.71;100.00;98196.94;4957262;28;20213;-77
2024/03/14 01:15:52;;;;;;;10.07;7.43;;;;;;;8.64;100.00;98198.25;4957570;28;20214;-77
2024/03/14 01:18:19;;;;;;;9.03;6.80;;;;;;;8.54;100.00;98189.19;4956534;28;20219;-77
2024/03/14 01:20:46;;;;;;;11.23;8.10;;;;;;;8.55;100.00;98197.03;4956285;28;20233;-77
2024/03/14 01:23:12;;;;;;;12.13;7.97;;;;;;;8.50;100.00;98198.25;4956131;28;20213;-76
2024/03/14 01:25:40;;;;;;;15.07;8.47;;;;;;;8.48;100.00;98185.16;4956100;28;20210;-76
2024/03/14 01:28:07;;;;;;;11.70;8.17;;;;;;;8.50;100.00;98185.09;4956420;28;20230;-77
2024/03/14 01:30:34;;;;;;;13.70;8.07;;;;;;;8.50;100.00;98174.53;4956183;28;20236;-77
2024/03/14 01:33:00;;;;;;;13.67;9.27;;;;;;;8.55;100.00;98185.63;4955516;28;20303;-77
2024/03/14 01:35:27;;;;;;;11.60;8.37;;;;;;;8.57;100.00;98179.34;4956641;28;20210;-77
2024/03/14 01:37:54;;;;;;;11.37;7.67;;;;;;;8.56;100.00;98175.00;4956374;28;20209;-77
2024/03/14 01:40:20;;;;;;;14.37;8.33;;;;;;;8.54;100.00;98170.75;4955886;28;20218;-77
2024/03/14 01:42:47;;;;;;;13.63;8.27;;;;;;;8.54;100.00;98173.41;4956076;28;20221;-77
2024/03/14 01:45:15;;;;;;;10.20;7.30;;;;;;;8.56;100.00;98163.63;4956063;28;20212;-77
2024/03/14 01:47:42;;;;;;;12.57;8.33;;;;;;;8.61;100.00;98174.72;4956376;28;20284;-77
2024/03/14 01:50:09;;;;;;;12.47;8.43;;;;;;;8.59;100.00;98161.66;4955778;28;20631;-77
2024/03/14 01:52:36;;;;;;;14.10;8.60;;;;;;;8.60;100.00;98159.84;4956162;28;20692;-77
2024/03/14 01:55:03;;;;;;;13.97;8.33;;;;;;;8.67;100.00;98153.28;4955760;28;20206;-77
2024/03/14 01:57:30;;;;;;;11.40;7.63;;;;;;;8.69;100.00;98162.78;4956278;28;20211;-77
2024/03/14 01:59:58;;;;;;;13.17;7.70;;;;;;;8.72;100.00;98153.84;4955988;28;20232;-77
2024/03/14 02:02:24;;;;;;;12.57;7.90;;;;;;;8.77;100.00;98149.13;4955949;28;20233;-78
2024/03/14 02:04:52;;;;;;;13.03;8.03;;;;;;;8.81;100.00;98150.66;4956018;28;20267;-78
2024/03/14 02:07:19;;;;;;;11.90;7.07;;;;;;;8.87;100.00;98151.09;4956022;28;20251;-77
2024/03/14 02:09:46;;;;;;;9.03;6.43;;;;;;;8.93;100.00;98145.44;4956015;28;20218;-77
2024/03/14 02:12:12;;;;;;;7.60;5.97;;;;;;;8.93;100.00;98136.72;4955996;28;20234;-77
2024/03/14 02:14:39;;;;;;;8.70;5.63;;;;;;;8.91;100.00;98133.31;4956186;28;20217;-77
2024/03/14 02:17:05;;;;;;;8.40;5.93;;;;;;;8.93;100.00;98144.63;4955773;28;20217;-77
2024/03/14 02:19:32;;;;;;;9.87;6.33;;;;;;;8.90;100.00;98140.38;4957832;28;20297;-78
2024/03/14 02:21:59;;;;;;;10.40;7.27;;;;;;;8.85;100.00;98145.09;4955139;28;20236;-78
2024/03/14 02:24:27;;;;;;;7.93;6.47;;;;;;;8.80;100.00;98143.66;4955454;28;20220;-77
2024/03/14 02:26:54;;;;;;;10.77;7.40;;;;;;;8.81;100.00;98150.66;4956037;28;20584;-77
2024/03/14 02:29:21;;;;;;;10.37;7.40;;;;;;;8.73;100.00;98137.94;4955710;28;20236;-77
2024/03/14 02:31:51;;;;;;;10.57;7.10;;;;;;;8.72;100.00;98135.41;4955448;28;20234;-77
2024/03/14 02:34:17;;;;;;;10.47;7.07;;;;;;;8.67;100.00;98132.19;4956067;28;20316;-77
2024/03/14 02:36:45;;;;;;;11.20;7.10;;;;;;;8.66;100.00;98133.13;4955481;28;20215;-76
2024/03/14 02:39:11;;;;;;;10.97;7.00;;;;;;;8.59;100.00;98130.06;4955721;28;20230;-77
2024/03/14 02:41:38;;;;;;;9.10;6.87;;;;;;;8.48;100.00;98129.00;4955260;28;20233;-77
2024/03/14 02:44:14;;;;;;;9.50;6.43;;;;;;;8.41;100.00;98132.94;4956452;28;20628;-77
2024/03/14 02:46:40;;;;;;;13.87;7.23;;;;;;;8.37;100.00;98139.31;4959460;28;20221;-77
2024/03/14 02:49:07;;;;;;;10.13;7.10;;;;;;;8.33;100.00;98133.41;4959186;28;20596;-76
2024/03/14 02:51:34;;;;;;;9.47;6.67;;;;;;;8.29;100.00;98131.03;4958807;28;20235;-78
2024/03/14 02:54:01;;;;;;;12.33;7.43;;;;;;;8.24;100.00;98127.84;4959026;28;20323;-78
2024/03/14 02:56:28;;;;;;;10.47;6.77;;;;;;;8.22;100.00;98135.00;4959248;28;20216;-77
2024/03/14 02:58:57;;;;;;;10.33;7.03;;;;;;;8.24;100.00;98128.69;4958944;28;20632;-76
2024/03/14 03:01:24;;;;;;;9.73;7.50;;;;;;;8.21;100.00;98128.03;4959316;28;20240;-78
2024/03/14 03:03:51;;;;;;;13.63;6.67;;;;;;;8.15;100.00;98121.31;4958765;28;20218;-78
2024/03/14 03:06:20;;;;;;;9.97;7.03;;;;;;;8.13;100.00;98131.09;4959357;28;20217;-77
2024/03/14 03:08:46;;;;;;;10.47;6.93;;;;;;;8.09;100.00;98123.47;4958781;28;20717;-77
2024/03/14 03:11:13;;;;;;;11.93;7.20;;;;;;;8.12;100.00;98125.91;4958587;28;20240;-77
2024/03/14 03:13:40;;;;;;;9.77;7.00;;;;;;;8.10;100.00;98120.75;4958631;28;20212;-77
2024/03/14 03:16:07;;;;;;;10.10;7.30;;;;;;;8.05;100.00;98121.94;4958707;28;20216;-77
2024/03/14 03:18:33;;;;;;;9.73;6.73;;;;;;;8.01;100.00;98120.41;4958655;28;20203;-77
2024/03/14 03:21:00;;;;;;;9.40;6.57;;;;;;;7.95;100.00;98123.44;4958432;28;20248;-77
2024/03/14 03:23:27;;;;;;;10.47;7.30;;;;;;;7.98;100.00;98125.88;4958643;28;20207;-77
2024/03/14 03:25:53;;;;;;;10.47;7.50;;;;;;;7.97;100.00;98108.41;4958227;28;20223;-77
2024/03/14 03:28:19;;;;;;;11.00;7.43;;;;;;;7.94;100.00;98114.69;4958318;28;20582;-77
2024/03/14 03:30:45;;;;;;;10.33;7.17;;;;;;;7.89;100.00;98116.75;4958005;28;20236;-77
2024/03/14 03:33:16;;;;;;;11.00;7.33;;;;;;;7.81;100.00;98112.88;4958113;28;20239;-77
2024/03/14 03:35:43;;;;;;;11.07;7.07;;;;;;;7.74;100.00;98116.78;4959186;28;20214;-77
2024/03/14 03:38:09;;;;;;;10.37;7.07;;;;;;;7.73;100.00;98115.09;4958345;28;20211;-77
2024/03/14 03:40:36;;;;;;;11.10;7.80;;;;;;;7.72;100.00;98111.59;4958056;28;20235;-76
2024/03/14 03:43:02;;;;;;;12.60;7.83;;;;;;;7.71;100.00;98106.47;4958484;28;20693;-77
2024/03/14 03:45:29;;;;;;;13.53;9.13;;;;;;;7.69;100.00;98108.31;4958133;28;20670;-77
2024/03/14 03:47:55;;;;;;;14.57;8.87;;;;;;;7.69;100.00;98105.69;4958081;28;20259;-77
2024/03/14 03:50:21;;;;;;;15.73;9.80;;;;;;;7.68;100.00;98107.47;4957810;28;20599;-76
2024/03/14 03:52:48;;;;;;;13.57;9.37;;;;;;;7.68;100.00;98106.63;4958320;28;20215;-77
2024/03/14 03:55:16;;;;;;;13.80;9.53;;;;;;;7.71;100.00;98111.72;4957593;28;20215;-77
2024/03/14 03:57:43;;;;;;;13.40;9.20;;;;;;;7.68;100.00;98111.88;4958121;28;20824;-77
2024/03/14 04:00:32;;;;;;;15.67;9.57;;;;;;;7.67;100.00;98104.94;4957578;28;20270;-77
2024/03/14 04:02:59;;;;;;;14.30;9.00;;;;;;;7.68;100.00;98117.16;4961315;28;20211;-77
2024/03/14 04:05:25;;;;;;;13.97;9.33;;;;;;;7.65;100.00;98105.00;4958236;28;20235;-76
2024/03/14 04:07:52;;;;;;;16.13;9.53;;;;;;;7.67;100.00;98107.56;4957563;28;20211;-77
2024/03/14 04:10:17;;;;;;;13.20;8.60;;;;;;;7.68;100.00;98107.47;4957291;28;20211;-77
2024/03/14 04:12:45;;;;;;;14.77;9.53;;;;;;;7.66;100.00;98109.34;4957433;28;20674;-77
2024/03/14 04:15:11;;;;;;;14.20;8.87;;;;;;;7.65;100.00;98106.81;4957741;28;20315;-77
2024/03/14 04:17:38;;;;;;;13.30;8.87;;;;;;;7.65;100.00;98112.09;4957794;28;20215;-77
2024/03/14 04:20:10;;;;;;;12.93;8.83;;;;;;;7.66;100.00;98108.50;4957607;28;20211;-77
2024/03/14 04:22:37;;;;;;;13.23;9.00;;;;;;;7.64;100.00;98111.22;4958310;28;20259;-77
2024/03/14 04:25:10;;;;;;;13.03;8.70;;;;;;;7.63;100.00;98108.66;4957309;28;20258;-77
2024/03/14 04:27:41;;;;;;;12.77;8.53;;;;;;;7.66;100.00;98108.50;4958292;28;20215;-77
2024/03/14 04:30:10;;;;;;;12.93;8.37;;;;;;;7.59;100.00;98110.63;4957965;28;20231;-77
2024/03/14 04:32:38;;;;;;;12.07;8.50;;;;;;;7.59;100.00;98102.75;4957821;28;20647;-78
2024/03/14 04:35:05;;;;;;;13.13;9.07;;;;;;;7.60;100.00;98100.97;4957292;28;20701;-77
2024/03/14 04:37:32;;;;;;;12.20;8.37;;;;;;;7.58;100.00;98094.94;4957453;28;20270;-77
2024/03/14 04:39:59;;;;;;;12.40;8.03;;;;;;;7.59;100.00;98099.28;4957258;28;20215;-77
2024/03/14 04:42:26;;;;;;;12.83;8.43;;;;;;;7.54;100.00;98098.69;4957284;28;20243;-77
2024/03/14 04:44:53;;;;;;;10.47;7.63;;;;;;;7.53;100.00;98094.38;4956897;28;20754;-77
2024/03/14 04:47:21;;;;;;;10.70;7.67;;;;;;;7.51;100.00;98098.84;4957196;28;20210;-77
2024/03/14 04:49:47;;;;;;;12.37;8.07;;;;;;;7.50;100.00;98097.16;4957352;28;20641;-78
2024/03/14 04:52:16;;;;;;;10.47;7.33;;;;;;;7.52;100.00;98090.03;4957073;28;20232;-77
2024/03/14 04:54:43;;;;;;;13.90;8.13;;;;;;;7.50;100.00;98091.91;4957686;28;20632;-77
2024/03/14 04:57:10;;;;;;;13.40;7.67;;;;;;;7.51;100.00;98088.34;4959982;28;20246;-78
2024/03/14 04:59:37;;;;;;;11.27;7.60;;;;;;;7.48;100.00;98089.34;4959645;28;20646;-78
2024/03/14 05:02:04;;;;;;;10.43;6.67;;;;;;;7.46;100.00;98085.97;4958198;28;20577;-78
2024/03/14 05:04:30;;;;;;;11.03;6.83;;;;;;;7.45;100.00;98091.31;4957053;28;20226;-77
2024/03/14 05:06:57;;;;;;;12.40;7.73;;;;;;;7.44;100.00;98092.25;4955929;28;20207;-77
2024/03/14 05:09:24;;;;;;;11.87;6.97;;;;;;;7.42;100.00;98091.50;4956116;28;20278;-77
2024/03/14 05:11:52;;;;;;;11.37;6.90;;;;;;;7.40;100.00;98098.63;4956075;28;20733;-77
2024/03/14 05:14:19;;;;;;;12.13;7.47;;;;;;;7.38;100.00;98092.59;4956816;28;20215;-77
2024/03/14 05:16:45;;;;;;;10.10;6.83;;;;;;;7.39;100.00;98089.03;4956755;28;20746;-77
2024/03/14 05:19:15;;;;;;;10.03;6.93;;;;;;;7.33;100.00;98089.38;4956666;28;20207;-77
2024/03/14 05:21:43;;;;;;;9.73;7.53;;;;;;;7.33;100.00;98084.13;4956536;28;20234;-77
2024/03/14 05:24:10;;;;;;;10.07;6.97;;;;;;;7.32;100.00;98088.56;4956465;28;20212;-77
2024/03/14 05:26:37;;;;;;;10.63;6.77;;;;;;;7.31;100.00;98088.63;4955887;28;20693;-77
2024/03/14 05:29:03;;;;;;;11.00;7.60;;;;;;;7.27;100.00;98084.47;4956230;28;20231;-77
2024/03/14 05:31:30;;;;;;;10.57;6.93;;;;;;;7.26;100.00;98093.31;4955860;28;20232;-77
2024/03/14 05:33:57;;;;;;;8.60;6.27;;;;;;;7.24;100.00;98092.56;4956002;28;20686;-77
2024/03/14 05:36:23;;;;;;;10.67;6.60;;;;;;;7.22;100.00;98084.75;4958540;28;20208;-78
2024/03/14 05:38:50;;;;;;;9.20;6.73;;;;;;;7.22;100.00;98083.91;4960654;28;20700;-77
2024/03/14 05:41:16;;;;;;;10.20;6.37;;;;;;;7.22;100.00;98083.91;4961069;28;20236;-78
2024/03/14 05:43:45;;;;;;;9.90;5.77;;;;;;;7.21;100.00;98089.25;4960126;28;20217;-77
2024/03/14 05:46:12;;;;;;;9.87;6.27;;;;;;;7.18;100.00;98095.53;4960647;28;20246;-77
2024/03/14 05:48:38;;;;;;;9.47;6.13;;;;;;;7.18;100.00;98102.56;4961075;28;20239;-78
2024/03/14 05:51:06;;;;;;;7.77;5.63;;;;;;;7.17;100.00;98098.22;4960778;28;20600;-78
2024/03/14 05:53:33;;;;;;;11.00;7.10;;;;;;;7.19;100.00;98084.06;4961461;28;20207;-78
2024/03/14 05:56:01;;;;;;;10.27;5.87;;;;;;;7.23;100.00;98090.88;4961571;28;20600;-77
2024/03/14 05:58:28;;;;;;;9.33;6.37;;;;;;;7.28;100.00;98094.09;4962352;28;20214;-77
2024/03/14 06:00:55;;;;;;;10.63;6.50;;;;;;;7.19;100.00;98097.22;4961130;28;20254;-77
2024/03/14 06:03:22;;;;;;;10.60;6.60;;;;;;;7.13;100.00;98094.06;4961404;28;20282;-77
2024/03/14 06:05:50;;;;;;;9.90;6.27;;;;;;;7.11;100.00;98094.19;4955363;28;20237;-77
2024/03/14 06:08:16;;;;;;;11.27;7.47;;;;;;;7.10;100.00;98095.13;4955942;28;20666;-77
2024/03/14 06:10:43;;;;;;;10.27;6.53;;;;;;;7.09;100.00;98089.94;4955205;28;20238;-77
2024/03/14 06:13:09;;;;;;;12.07;6.83;;;;;;;7.14;100.00;98098.41;4955498;28;20678;-77
2024/03/14 06:15:36;;;;;;;12.63;7.80;;;;;;;7.16;100.00;98097.41;4955586;28;20223;-77
2024/03/14 06:18:05;;;;;;;11.30;7.17;;;;;;;7.16;100.00;98100.03;4955982;28;20211;-77
2024/03/14 06:20:32;;;;;;;14.47;7.73;;;;;;;7.18;100.00;98094.66;4955068;28;20226;-77
2024/03/14 06:22:59;;;;;;;11.23;6.47;;;;;;;7.14;100.00;98096.63;4955602;28;20212;-77
2024/03/14 06:25:25;;;;;;;13.10;7.90;;;;;;;7.15;100.00;98095.69;4955484;28;20281;-78
2024/03/14 06:27:52;;;;;;;12.40;7.40;;;;;;;7.15;100.00;98105.38;4955756;28;20210;-77
2024/03/14 06:30:19;;;;;;;17.63;8.33;;;;;;;7.16;100.00;98109.69;4955478;28;20238;-78
2024/03/14 06:32:46;;;;;;;13.53;7.47;;;;;;;7.21;100.00;98100.59;4961213;28;20582;-78
2024/03/14 06:35:13;;;;;;;14.10;7.97;;;;;;;7.24;100.00;98097.81;4955921;28;20212;-77
2024/03/14 06:37:41;;;;;;;17.30;8.33;;;;;;;7.22;100.00;98101.47;4955717;28;20211;-77
2024/03/14 06:40:08;;;;;;;15.13;8.23;;;;;;;7.24;100.00;98106.53;4955511;28;20208;-77
2024/03/14 06:42:34;;;;;;;16.33;8.57;;;;;;;7.27;100.00;98104.69;4955225;28;20209;-78
2024/03/14 06:45:02;;;;;;;15.63;7.73;;;;;;;7.29;100.00;98114.19;4939273;28;20676;-77
2024/03/14 06:47:29;;;;;;;15.00;8.00;;;;;;;7.32;100.00;98116.63;4955649;28;20303;-77
2024/03/14 06:49:57;;;;;;;15.40;8.47;;;;;;;7.36;100.00;98111.09;4955106;28;20239;-77
2024/03/14 06:52:23;;;;;;;15.57;8.47;;;;;;;7.40;100.00;98114.38;4954954;28;20238;-77
2024/03/14 06:54:50;;;;;;;15.77;7.93;;;;;;;7.42;100.00;98115.16;4954886;28;20212;-77
2024/03/14 06:57:16;;;;;;;13.63;7.60;;;;;;;7.44;100.00;98113.28;4954912;28;20657;-77
2024/03/14 06:59:48;;;;;;;16.40;8.30;;;;;;;7.52;100.00;98105.81;4956642;28;20218;-76
2024/03/14 07:02:17;;;;;;;15.50;8.57;;;;;;;7.53;100.00;98110.16;4955658;28;20327;-75
2024/03/14 07:04:43;;;;;;;15.90;8.60;;;;;;;7.61;100.00;98110.53;4954986;28;20231;-75
2024/03/14 07:07:11;;;;;;;15.57;8.43;;;;;;;7.67;100.00;98115.47;4954826;28;20587;-75
2024/03/14 07:09:37;;;;;;;14.83;8.60;;;;;;;7.70;100.00;98110.00;4955199;28;20288;-75
2024/03/14 07:12:05;;;;;;;17.97;8.43;;;;;;;7.73;100.00;98115.09;4954428;28;20228;-75
2024/03/14 07:14:31;;;;;;;14.73;8.60;;;;;;;7.79;100.00;98114.75;4954944;28;20212;-75
2024/03/14 07:16:58;;;;;;;14.57;8.70;;;;;;;7.84;100.00;98117.97;4954709;28;20213;-75
2024/03/14 07:19:25;;;;;;;15.70;8.97;;;;;;;7.95;100.00;98115.56;4954862;28;20220;-77
2024/03/14 07:21:53;;;;;;;13.60;8.17;;;;;;;8.01;100.00;98116.03;4954472;28;20601;-76
2024/03/14 07:24:21;;;;;;;19.80;9.53;;;;;;;8.17;100.00;98115.94;4954920;28;20238;-76
2024/03/14 07:26:47;;;;;;;14.70;9.10;;;;;;;8.22;100.00;98113.94;4954711;28;20216;-76
2024/03/14 07:29:14;;;;;;;16.30;8.87;;;;;;;8.23;100.00;98116.47;4954377;28;20237;-76
2024/03/14 07:31:42;;;;;;;15.47;8.53;;;;;;;8.37;100.00;98118.25;4954226;28;20242;-76
2024/03/14 07:34:10;;;;;;;14.27;8.40;;;;;;;8.45;100.00;98118.66;4957002;28;20616;-77
2024/03/14 07:36:38;;;;;;;17.43;8.93;;;;;;;8.52;100.00;98117.34;4957616;28;20268;-77
2024/03/14 07:39:06;;;;;;;16.90;9.90;;;;;;;8.63;100.00;98118.38;4957767;28;20209;-77
2024/03/14 07:41:32;;;;;;;17.23;9.40;;;;;;;8.61;100.00;98111.50;4957037;28;20640;-77
2024/03/14 07:43:59;;;;;;;15.43;9.67;;;;;;;8.65;100.00;98118.28;4957294;28;20215;-77
2024/03/14 07:46:27;;;;;;;14.40;8.57;;;;;;;8.66;100.00;98120.81;4957317;28;20213;-77
2024/03/14 07:48:54;;;;;;;14.00;8.47;;;;;;;8.71;100.00;98113.50;4957416;28;20214;-77
2024/03/14 07:51:20;;;;;;;13.20;7.57;;;;;;;8.70;100.00;98119.69;4956404;28;20237;-76
2024/03/14 07:53:47;;;;;;;15.40;9.53;;;;;;;8.71;100.00;98123.16;4956998;28;20217;-76
2024/03/14 07:56:14;;;;;;;15.80;9.50;;;;;;;8.76;100.00;98126.38;4957470;28;20215;-77
2024/03/14 07:58:42;;;;;;;15.67;9.43;;;;;;;8.80;100.00;98122.59;4957641;28;20217;-76
2024/03/14 08:01:09;;;;;;;18.10;10.23;;;;;;;8.83;100.00;98127.69;4956981;28;20325;-77
2024/03/14 08:03:38;;;;;;;17.60;9.77;;;;;;;8.87;100.00;98123.91;4957644;28;20244;-77
2024/03/14 08:06:05;;;;;;;15.37;8.87;;;;;;;8.97;100.00;98120.59;4957930;28;20637;-77
2024/03/14 08:08:32;;;;;;;15.93;9.23;;;;;;;9.01;100.00;98121.25;4957709;28;20208;-76
2024/03/14 08:10:59;;;;;;;16.93;9.87;;;;;;;9.09;100.00;98118.97;4957383;28;20325;-76
2024/03/14 08:13:28;;;;;;;16.67;9.60;;;;;;;9.14;100.00;98123.03;4957292;28;20243;-76
2024/03/14 08:15:54;;;;;;;14.77;9.80;;;;;;;9.26;100.00;98121.38;4957768;28;20629;-77
2024/03/14 08:18:24;;;;;;;14.77;9.00;;;;;;;9.30;100.00;98122.91;4956758;28;20209;-77
2024/03/14 08:20:55;;;;;;;18.43;9.17;;;;;;;9.41;100.00;98120.38;4971519;28;20665;-77
2024/03/14 08:23:22;;;;;;;14.20;9.50;;;;;;;9.52;100.00;98124.03;4972484;28;20229;-76
2024/03/14 08:25:49;;;;;;;12.87;7.60;;;;;;;9.72;100.00;98130.66;4972405;28;20213;-77
2024/03/14 08:28:15;;;;;;;15.83;8.10;;;;;;;9.80;100.00;98129.19;4973116;28;20211;-77
2024/03/14 08:30:45;;;;;;;12.53;7.73;;;;;;;9.86;100.00;98136.69;4975499;28;20238;-81
2024/03/14 08:33:12;;;;;;;12.90;8.03;;;;;;;9.95;100.00;98129.97;4985695;28;20212;-82
2024/03/14 08:35:42;;;;;;;13.83;8.37;;;;;;;10.06;100.00;98136.28;4985750;28;20229;-83
2024/03/14 08:38:09;;;;;;;11.63;7.53;;;;;;;10.15;100.00;98134.81;4980733;28;20211;-83
2024/03/14 08:40:36;;;;;;;14.67;8.23;;;;;;;10.17;100.00;98132.91;4960270;28;20230;-77
2024/03/14 08:43:02;;;;;;;14.63;8.27;;;;;;;10.21;100.00;98129.13;4973184;28;20265;-81
2024/03/14 08:45:29;;;;;;;14.30;8.60;;;;;;;10.28;100.00;98130.38;4981017;28;20217;-80
2024/03/14 08:47:56;;;;;;;12.37;8.43;;;;;;;10.38;100.00;98123.50;4982392;28;20212;-81
2024/03/14 08:50:22;;;;;;;12.77;8.50;;;;;;;10.57;100.00;98123.94;4983900;28;20263;-80
2024/03/14 08:52:49;;;;;;;11.87;7.63;;;;;;;10.70;100.00;98128.25;4986565;28;20213;-82
2024/03/14 08:55:24;;;;;;;12.30;8.13;;;;;;;10.67;100.00;98122.34;4986059;28;20211;-83
2024/03/14 08:57:54;;;;;;;12.83;8.27;;;;;;;10.83;100.00;98118.53;4982041;28;20200;-81
2024/03/14 09:00:21;;;;;;;12.67;7.40;;;;;;;10.96;100.00;98121.16;4982721;28;20220;-82
2024/03/14 09:02:48;;;;;;;12.47;7.60;;;;;;;11.04;100.00;98118.81;4982517;28;20238;-82
2024/03/14 09:05:16;;;;;;;9.70;7.03;;;;;;;11.13;100.00;98126.09;4981777;28;20303;-82
2024/03/14 09:07:42;;;;;;;12.30;7.63;;;;;;;11.17;100.00;98122.25;4983038;28;20214;-81
2024/03/14 09:10:16;;;;;;;11.10;7.27;;;;;;;11.34;100.00;98120.09;4982009;28;20233;-81
2024/03/14 09:12:43;;;;;;;11.47;7.17;;;;;;;11.42;100.00;98111.59;4982043;28;20350;-81
2024/03/14 09:15:11;;;;;;;10.20;6.80;;;;;;;11.48;100.00;98111.16;4982161;28;20215;-82
2024/03/14 09:17:38;;;;;;;10.97;6.53;;;;;;;11.45;100.00;98108.75;4981867;28;20236;-82
2024/03/14 09:20:06;;;;;;;8.67;5.73;;;;;;;11.51;100.00;98110.94;4983453;28;20224;-81
2024/03/14 09:22:33;;;;;;;9.27;5.80;;;;;;;11.65;100.00;98113.44;4983785;28;20595;-81
2024/03/14 09:25:01;;;;;;;8.70;5.83;;;;;;;11.73;100.00;98103.97;4982419;28;20297;-82
2024/03/14 09:27:27;;;;;;;8.67;5.73;;;;;;;11.87;100.00;98097.66;4980890;28;20277;-81
2024/03/14 09:29:55;;;;;;;6.83;4.90;;;;;;;12.01;100.00;98100.09;4976808;28;20230;-83
2024/03/14 09:32:23;;;;;;;8.17;5.60;;;;;;;12.16;100.00;98088.38;4976333;28;20237;-80
2024/03/14 09:34:50;;;;;;;8.50;5.67;;;;;;;12.21;100.00;98087.03;4976415;28;20218;-80
2024/03/14 09:37:17;;;;;;;6.60;5.10;;;;;;;12.24;100.00;98080.66;4977208;28;20210;-82
2024/03/14 09:39:43;;;;;;;6.40;4.43;;;;;;;12.27;100.00;98080.41;4977429;28;20687;-82
2024/03/14 09:42:10;;;;;;;6.13;4.80;;;;;;;12.38;100.00;98081.31;4976778;28;20237;-82
2024/03/14 09:44:37;;;;;;;5.87;4.17;;;;;;;12.54;100.00;98087.09;4974451;28;20220;-81
2024/03/14 09:47:05;;;;;;;7.20;4.97;;;;;;;12.65;100.00;98086.28;4974158;28;20327;-78
2024/03/14 09:49:32;;;;;;;7.67;4.60;;;;;;;12.78;100.00;98076.38;4974143;28;20222;-80
2024/03/14 10:31:08;;;;;;;4.73;3.70;;;;;;;13.55;100.00;98036.44;4970866;28;20246;-80
2024/03/14 10:33:41;;;;;;;5.57;3.47;;;;;;;13.61;100.00;98020.00;4957611;28;20330;-78
2024/03/14 10:36:08;;;;;;;3.87;3.40;;;;;;;13.53;100.00;98012.69;4958320;28;20215;-78
2024/03/14 10:38:36;;;;;;;3.93;3.30;;;;;;;13.55;100.00;98016.06;4958315;28;20206;-78
2024/03/14 10:41:05;;;;;;;3.57;3.10;;;;;;;13.55;100.00;98029.31;4958105;28;20238;-80
2024/03/14 10:43:40;;;;;;;3.83;3.00;;;;;;;13.71;100.00;98031.56;4958327;28;20247;-78
2024/03/14 10:46:09;;;;;;;4.00;3.13;;;;;;;13.78;100.00;98019.44;4957705;28;20266;-78
2024/03/14 10:48:38;;;;;;;3.37;2.97;;;;;;;13.92;100.00;98013.81;4957857;28;20302;-78
2024/03/14 10:51:05;;;;;;;5.53;3.13;;;;;;;13.93;100.00;98015.50;4956940;28;20234;-78
2024/03/14 10:53:32;;;;;;;3.40;2.80;;;;;;;13.86;100.00;98003.69;4959849;28;20316;-78
2024/03/14 10:55:59;;;;;;;4.20;2.83;;;;;;;13.91;100.00;98006.81;4957427;28;20673;-80
2024/03/14 10:58:26;;;;;;;3.47;2.60;;;;;;;14.07;100.00;97999.22;4956109;28;20214;-79
2024/03/14 11:00:53;;;;;;;3.40;2.50;;;;;;;14.24;99.77;97988.88;4955604;28;20227;-77
2024/03/14 11:03:20;;;;;;;2.97;2.40;;;;;;;14.38;100.00;98000.97;4956366;28;20263;-80
2024/03/14 11:05:48;;;;;;;2.70;2.27;;;;;;;14.36;99.24;97987.81;4959499;28;20214;-78
2024/03/14 11:08:16;;;;;;;2.93;2.10;;;;;;;14.41;100.00;97995.38;4960214;28;20217;-78
2024/03/14 11:10:43;;;;;;;2.23;2.03;;;;;;;14.56;99.39;97994.91;4959850;28;20731;-78
2024/03/14 11:13:11;;;;;;;2.90;2.00;;;;;;;14.64;98.15;97986.25;4960232;28;20214;-78
2024/03/14 11:15:38;;;;;;;2.33;1.90;;;;;;;14.64;93.90;97959.66;4960286;28;20216;-78
2024/03/14 11:18:06;;;;;;;2.60;2.13;;;;;;;14.72;94.06;97967.81;4961992;28;20669;-83
2024/03/14 11:20:33;;;;;;;4.67;2.30;;;;;;;14.73;93.54;97969.50;4948178;28;20579;-83
2024/03/14 11:23:00;;;;;;;2.70;1.90;;;;;;;14.76;92.82;97953.25;4964009;28;20215;-84
2024/03/14 11:25:27;;;;;;;2.80;2.03;;;;;;;14.78;90.87;97951.31;4963187;28;20245;-86
2024/03/14 11:27:55;;;;;;;2.60;1.77;;;;;;;14.58;91.92;97953.06;4965095;28;20228;-85
2024/03/14 11:30:22;;;;;;;2.20;1.83;;;;;;;14.60;94.61;97960.91;4965758;28;20361;-84
2024/03/14 11:32:50;;;;;;;2.43;1.80;;;;;;;14.54;95.32;97961.44;4967724;28;20220;-83
2024/03/14 11:35:34;;;;;;;1.97;1.50;;;;;;;14.59;94.03;97952.09;4968561;28;20236;-85
2024/03/14 11:38:04;;;;;;;1.63;1.53;;;;;;;14.79;90.88;97943.16;4950505;28;20215;-85
2024/03/14 11:40:32;;;;;;;2.43;1.90;;;;;;;14.81;92.22;97943.91;4962425;28;20280;-83
2024/03/14 11:43:00;;;;;;;3.00;1.77;;;;;;;14.80;89.92;97923.56;4964515;28;20237;-83
2024/03/14 11:45:30;;;;;;;4.00;1.90;;;;;;;14.67;88.88;97922.16;4963899;28;20213;-83
2024/03/14 11:47:57;;;;;;;1.67;1.53;;;;;;;14.70;88.42;97921.88;4964391;28;20211;-83
2024/03/14 11:50:25;;;;;;;1.60;1.33;;;;;;;14.66;90.22;97923.13;4965243;28;20240;-83
2024/03/14 11:52:53;;;;;;;2.73;1.60;;;;;;;14.96;96.05;97957.66;4966183;28;20208;-83
2024/03/14 11:55:20;;;;;;;2.53;1.40;;;;;;;15.05;95.61;97946.16;4965082;28;20249;-83
2024/03/14 11:57:48;;;;;;;2.83;1.53;;;;;;;15.11;92.87;97932.31;4964756;28;20212;-83
2024/03/14 12:00:20;;;;;;;2.00;1.40;;;;;;;15.16;88.48;97914.09;4964303;28;20267;-82
2024/03/14 12:02:49;;;;;;;1.57;1.43;;;;;;;15.18;87.90;97907.66;4965829;28;20213;-82
2024/03/14 12:05:23;;;;;;;1.77;1.67;;;;;;;15.49;91.31;97921.69;4964644;28;20215;-82
2024/03/14 12:07:52;;;;;;;1.70;1.50;;;;;;;15.58;88.70;97910.19;4965206;28;20241;-82